Time;durP1;ratioP1;P1;durP2;ratioP2;P2;SDS_P1;SDS_P2;PMS_P1;PMS_P2;Temp;Humidity;BMP_temperature;BMP_pressure;BME280_temperature;BME280_humidity;BME280_pressure;Samples;Min_cycle;Max_cycle;Signal;HPM_P1;HPM_P2
2023/03/02 00:01:29;;;;;;;6.27;4.37;;;;;;;-0.79;90.42;102259.63;5067847;28;20454;-65
2023/03/02 00:03:57;;;;;;;6.73;5.03;;;;;;;-0.81;91.36;102259.44;5068008;28;20244;-65
2023/03/02 00:06:23;;;;;;;5.80;4.50;;;;;;;-0.81;90.67;102264.53;5068310;28;20028;-65
2023/03/02 00:08:49;;;;;;;5.43;4.67;;;;;;;-0.82;90.30;102272.91;5068037;28;20024;-65
2023/03/02 00:11:14;;;;;;;6.33;4.70;;;;;;;-0.82;91.09;102267.81;5067656;28;20035;-65
2023/03/02 00:13:40;;;;;;;7.43;4.87;;;;;;;-0.81;90.91;102268.72;5068262;28;20390;-64
2023/03/02 00:16:06;;;;;;;8.70;4.70;;;;;;;-0.83;90.71;102268.59;5067788;28;20074;-65
2023/03/02 00:18:31;;;;;;;6.20;4.53;;;;;;;-0.82;90.45;102274.56;5067353;28;20481;-64
2023/03/02 00:20:57;;;;;;;8.70;5.50;;;;;;;-0.82;90.52;102275.47;5067314;28;20056;-64
2023/03/02 00:23:22;;;;;;;6.93;4.57;;;;;;;-0.82;90.73;102266.91;5067497;28;20059;-64
2023/03/02 00:25:47;;;;;;;7.50;4.33;;;;;;;-0.84;89.86;102261.66;5067650;28;20483;-65
2023/03/02 00:28:12;;;;;;;5.20;4.50;;;;;;;-0.83;91.04;102265.13;5067094;28;20032;-65
2023/03/02 00:30:38;;;;;;;6.50;4.80;;;;;;;-0.87;90.57;102262.28;5067654;28;20103;-66
2023/03/02 00:33:03;;;;;;;5.70;4.60;;;;;;;-0.86;89.85;102270.78;5067777;28;20035;-64
2023/03/02 00:35:28;;;;;;;6.97;4.47;;;;;;;-0.86;90.64;102268.25;5067282;28;20457;-64
2023/03/02 00:37:54;;;;;;;5.90;4.60;;;;;;;-0.85;90.19;102272.63;5067370;28;20036;-64
2023/03/02 00:40:19;;;;;;;6.33;4.90;;;;;;;-0.85;89.45;102265.84;5067385;28;20740;-64
2023/03/02 00:42:45;;;;;;;7.07;5.03;;;;;;;-0.82;89.10;102274.56;5066819;28;20037;-64
2023/03/02 00:45:10;;;;;;;6.33;4.17;;;;;;;-0.83;89.91;102277.84;5067534;28;20377;-65
2023/03/02 00:47:36;;;;;;;5.97;5.37;;;;;;;-0.84;89.41;102279.50;5067062;28;20032;-65
2023/03/02 00:50:03;;;;;;;5.27;4.37;;;;;;;-0.86;90.32;102271.69;5067310;28;20485;-64
2023/03/02 00:52:30;;;;;;;6.73;4.93;;;;;;;-0.86;89.36;102269.16;5067086;28;20039;-65
2023/03/02 00:54:55;;;;;;;6.43;4.53;;;;;;;-0.87;89.35;102264.81;5067513;28;20442;-64
2023/03/02 00:57:20;;;;;;;7.23;4.67;;;;;;;-0.86;90.15;102268.25;5067982;28;20032;-65
2023/03/02 00:59:46;;;;;;;10.27;5.60;;;;;;;-0.88;90.70;102269.75;5067363;28;20075;-64
2023/03/02 01:02:11;;;;;;;5.77;4.97;;;;;;;-0.92;90.36;102267.63;5067370;28;20028;-64
2023/03/02 01:04:39;;;;;;;6.47;4.40;;;;;;;-0.95;90.16;102265.66;5066711;28;20020;-65
2023/03/02 01:07:09;;;;;;;6.30;4.73;;;;;;;-0.99;90.82;102269.53;5067264;28;20024;-65
2023/03/02 01:09:35;;;;;;;6.60;4.93;;;;;;;-1.05;90.82;102262.94;5067130;28;20028;-64
2023/03/02 01:12:01;;;;;;;7.27;4.97;;;;;;;-1.09;91.25;102261.72;5066973;28;20029;-64
2023/03/02 01:14:26;;;;;;;6.80;4.57;;;;;;;-1.12;91.50;102253.78;5067585;28;20621;-64
2023/03/02 01:16:51;;;;;;;6.60;4.73;;;;;;;-1.14;91.38;102257.81;5067146;28;20028;-64
2023/03/02 01:19:17;;;;;;;5.73;4.67;;;;;;;-1.16;92.21;102255.09;5067362;28;20039;-64
2023/03/02 01:21:43;;;;;;;7.13;4.80;;;;;;;-1.16;92.04;102251.66;5067002;28;20085;-64
2023/03/02 01:24:09;;;;;;;6.67;4.67;;;;;;;-1.19;91.78;102246.25;5066965;28;20269;-65
2023/03/02 01:26:35;;;;;;;5.80;4.30;;;;;;;-1.21;92.12;102239.34;5066906;28;20488;-64
2023/03/02 01:29:01;;;;;;;9.50;4.73;;;;;;;-1.19;92.39;102241.16;5067087;28;20028;-65
2023/03/02 01:31:27;;;;;;;7.47;5.23;;;;;;;-1.23;93.17;102245.94;5067223;28;20449;-64
2023/03/02 01:33:53;;;;;;;6.67;4.97;;;;;;;-1.26;92.95;102245.63;5066446;28;20447;-64
2023/03/02 01:36:19;;;;;;;6.50;4.90;;;;;;;-1.28;94.07;102242.03;5066984;28;20075;-64
2023/03/02 01:38:44;;;;;;;7.73;5.03;;;;;;;-1.34;93.89;102246.47;5066826;28;20036;-64
2023/03/02 01:41:10;;;;;;;7.87;5.07;;;;;;;-1.35;93.78;102237.06;5066512;28;20081;-64
2023/03/02 01:43:36;;;;;;;6.90;4.73;;;;;;;-1.35;94.88;102237.06;5066375;28;20468;-64
2023/03/02 01:46:11;;;;;;;6.70;5.10;;;;;;;-1.37;93.88;102225.81;5066726;28;20062;-64
2023/03/02 01:48:44;;;;;;;10.73;5.60;;;;;;;-1.36;93.84;102228.53;5066814;28;20028;-64
2023/03/02 01:51:14;;;;;;;6.27;4.87;;;;;;;-1.38;94.01;102218.91;5066457;28;20127;-64
2023/03/02 01:53:45;;;;;;;7.30;5.13;;;;;;;-1.37;93.96;102228.38;5066670;28;20028;-64
2023/03/02 01:56:25;;;;;;;8.95;6.05;;;;;;;-1.38;94.05;102229.09;5066194;28;20458;-64
2023/03/02 01:59:00;;;;;;;6.43;5.47;;;;;;;-1.37;94.85;102226.69;5066516;28;20328;-64
2023/03/02 02:01:27;;;;;;;6.77;4.70;;;;;;;-1.36;95.08;102218.34;5070069;28;20024;-64
2023/03/02 02:03:54;;;;;;;7.33;5.50;;;;;;;-1.33;94.71;102217.75;5070450;28;20407;-65
2023/03/02 02:06:33;;;;;;;7.13;5.03;;;;;;;-1.32;94.80;102222.09;5070295;28;20052;-64
2023/03/02 02:09:00;;;;;;;6.13;5.27;;;;;;;-1.32;94.80;102217.03;5070690;28;20526;-64
2023/03/02 02:11:25;;;;;;;7.27;5.70;;;;;;;-1.31;95.05;102211.19;5070857;28;20170;-64
2023/03/02 02:13:57;;;;;;;8.17;5.60;;;;;;;-1.30;96.08;102215.53;5070093;28;20431;-64
2023/03/02 02:16:24;;;;;;;7.43;5.63;;;;;;;-1.30;95.73;102222.25;5070350;28;20074;-64
2023/03/02 02:18:50;;;;;;;7.00;5.57;;;;;;;-1.29;96.06;102213.88;5070698;28;20025;-64
2023/03/02 02:21:18;;;;;;;9.03;5.70;;;;;;;-1.29;96.24;102211.31;5070352;28;20028;-64
2023/03/02 02:24:06;;;;;;;9.43;6.10;;;;;;;-1.30;97.13;102213.00;5070512;28;20012;-64
2023/03/02 02:26:38;;;;;;;7.43;5.77;;;;;;;-1.29;96.65;102209.69;5059140;28;20480;-66
2023/03/02 02:29:11;;;;;;;7.63;6.13;;;;;;;-1.31;98.01;102211.19;5070171;28;20064;-64
2023/03/02 02:31:42;;;;;;;8.37;7.10;;;;;;;-1.33;98.21;102212.66;5069987;28;20499;-64
2023/03/02 02:34:21;;;;;;;10.03;6.57;;;;;;;-1.34;98.28;102210.88;5069722;28;20075;-64
2023/03/02 02:36:48;;;;;;;8.67;6.90;;;;;;;-1.34;98.49;102211.78;5069403;28;20032;-64
2023/03/02 02:39:19;;;;;;;10.83;6.80;;;;;;;-1.36;98.84;102213.25;5069520;28;20621;-64
2023/03/02 02:41:46;;;;;;;;;;;;;;;-1.38;99.74;102208.75;5070277;28;20064;-64
2023/03/02 02:44:15;;;;;;;9.50;7.00;;;;;;;-1.42;99.79;102204.09;5069799;28;19966;-64
2023/03/02 02:46:40;;;;;;;8.13;6.47;;;;;;;-1.47;100.00;102199.44;5069663;28;20431;-65
2023/03/02 02:49:20;;;;;;;9.33;7.23;;;;;;;-1.51;100.00;102201.53;5069738;28;20098;-64
2023/03/02 02:51:45;;;;;;;10.93;6.90;;;;;;;-1.52;100.00;102197.16;5070132;28;20028;-64
2023/03/02 02:54:16;;;;;;;9.70;7.70;;;;;;;-1.54;100.00;102196.09;5069889;28;20456;-64
2023/03/02 02:56:42;;;;;;;10.05;7.50;;;;;;;-1.54;100.00;102191.91;5069459;28;20039;-64
2023/03/02 02:59:34;;;;;;;11.10;7.93;;;;;;;-1.55;100.00;102195.22;5070111;28;20032;-65
2023/03/02 03:02:00;;;;;;;12.60;8.73;;;;;;;-1.54;100.00;102191.00;5070023;28;20138;-64
2023/03/02 03:04:30;;;;;;;13.07;9.80;;;;;;;-1.54;100.00;102201.19;5069783;28;20097;-64
2023/03/02 03:07:05;;;;;;;13.02;8.90;;;;;;;-1.56;100.00;102193.41;5069734;28;20024;-65
2023/03/02 03:09:32;;;;;;;14.70;9.80;;;;;;;-1.57;100.00;102196.69;5069975;28;20032;-64
2023/03/02 03:12:20;;;;;;;12.23;9.87;;;;;;;-1.59;100.00;102193.09;5069386;28;20048;-64
2023/03/02 03:14:46;;;;;;;15.93;11.60;;;;;;;-1.60;100.00;102191.31;5069681;28;20033;-64
2023/03/02 03:17:12;;;;;;;18.03;12.70;;;;;;;-1.60;100.00;102193.84;5069741;28;20465;-64
2023/03/02 03:19:43;;;;;;;16.27;12.23;;;;;;;-1.62;100.00;102185.16;5069610;28;20047;-64
2023/03/02 03:22:12;;;;;;;17.80;12.45;;;;;;;-1.64;100.00;102190.09;5069558;28;20028;-64
2023/03/02 03:24:39;;;;;;;16.37;12.03;;;;;;;-1.64;100.00;102190.09;5069868;28;20392;-64
2023/03/02 03:27:07;;;;;;;20.73;13.67;;;;;;;-1.63;100.00;102183.34;5069502;28;20020;-64
2023/03/02 03:29:33;;;;;;;20.60;14.70;;;;;;;-1.66;100.00;102190.66;5068841;28;20477;-64
2023/03/02 03:32:01;;;;;;;20.73;14.37;;;;;;;-1.69;100.00;102184.50;5069132;28;20032;-64
2023/03/02 03:34:28;;;;;;;19.20;14.10;;;;;;;-1.70;100.00;102185.25;5068935;28;20339;-64
2023/03/02 03:36:54;;;;;;;20.43;14.63;;;;;;;-1.70;100.00;102180.16;5068014;28;20043;-64
2023/03/02 03:39:19;;;;;;;22.03;14.80;;;;;;;-1.69;100.00;102175.97;5068518;28;20388;-64
2023/03/02 03:41:44;;;;;;;19.53;14.33;;;;;;;-1.70;100.00;102181.81;5067986;28;20052;-64
2023/03/02 03:44:10;;;;;;;24.57;16.50;;;;;;;-1.70;100.00;102176.72;5068495;28;20031;-64
2023/03/02 03:46:35;;;;;;;25.57;16.87;;;;;;;-1.72;100.00;102181.66;5068479;28;20024;-64
2023/03/02 03:49:01;;;;;;;25.87;17.40;;;;;;;-1.71;100.00;102180.91;5067779;28;20056;-64
2023/03/02 03:51:26;;;;;;;25.90;17.10;;;;;;;-1.72;100.00;102184.19;5068255;28;20051;-64
2023/03/02 03:54:01;;;;;;;29.40;17.60;;;;;;;-1.74;100.00;102183.13;5068112;28;20266;-64
2023/03/02 03:56:28;;;;;;;23.13;16.40;;;;;;;-1.74;100.00;102187.31;5068147;28;20357;-64
2023/03/02 03:59:05;;;;;;;25.80;17.03;;;;;;;-1.74;100.00;102193.28;5067642;28;20029;-64
2023/03/02 04:01:38;;;;;;;24.57;17.40;;;;;;;-1.74;100.00;102182.22;5068141;28;20029;-64
2023/03/02 04:04:06;;;;;;;28.77;18.97;;;;;;;-1.75;100.00;102191.50;5067646;28;20029;-64
2023/03/02 04:06:32;;;;;;;27.00;17.53;;;;;;;-1.76;100.00;102188.81;5068133;28;20036;-64
2023/03/02 04:09:03;;;;;;;27.00;17.53;;;;;;;-1.76;100.00;102194.78;5068257;28;20547;-64
2023/03/02 04:11:31;;;;;;;28.27;19.20;;;;;;;-1.76;100.00;102193.91;5067754;28;20032;-64
2023/03/02 04:13:57;;;;;;;29.53;20.03;;;;;;;-1.77;100.00;102198.06;5067218;28;20075;-64
2023/03/02 04:16:22;;;;;;;27.40;18.80;;;;;;;-1.77;100.00;102195.53;5067798;28;20111;-64
2023/03/02 04:18:47;;;;;;;29.87;20.43;;;;;;;-1.78;100.00;102187.75;5067619;28;20024;-64
2023/03/02 04:21:13;;;;;;;28.90;18.83;;;;;;;-1.78;100.00;102186.09;5067626;28;20024;-64
2023/03/02 04:23:38;;;;;;;30.20;20.77;;;;;;;-1.79;100.00;102189.38;5066642;28;20032;-64
2023/03/02 04:26:04;;;;;;;29.27;19.80;;;;;;;-1.80;100.00;102190.13;5067451;28;20028;-64
2023/03/02 04:28:30;;;;;;;30.47;19.27;;;;;;;-1.83;100.00;102193.25;5067275;28;20035;-64
2023/03/02 04:30:55;;;;;;;29.13;19.87;;;;;;;-1.84;100.00;102191.47;5067653;28;20025;-64
2023/03/02 04:33:21;;;;;;;29.53;18.97;;;;;;;-1.85;100.00;102193.81;5067111;28;20234;-64
2023/03/02 04:35:46;;;;;;;29.13;18.70;;;;;;;-1.84;100.00;102190.53;5067201;28;20031;-64
2023/03/02 04:38:11;;;;;;;28.30;18.77;;;;;;;-1.84;100.00;102191.47;5067047;28;20024;-64
2023/03/02 04:40:36;;;;;;;29.27;19.00;;;;;;;-1.83;100.00;102192.34;5067549;28;20111;-64
2023/03/02 04:43:02;;;;;;;27.43;18.17;;;;;;;-1.84;100.00;102191.47;5067452;28;20518;-64
2023/03/02 04:45:27;;;;;;;28.87;19.20;;;;;;;-1.84;100.00;102193.09;5067236;28;20051;-65
2023/03/02 04:47:52;;;;;;;26.77;18.53;;;;;;;-1.85;100.00;102191.25;5066585;28;20115;-64
2023/03/02 04:50:18;;;;;;;27.83;18.90;;;;;;;-1.86;100.00;102189.47;5067399;28;20101;-64
2023/03/02 04:52:44;;;;;;;25.30;17.60;;;;;;;-1.86;100.00;102192.03;5067533;28;20471;-64
2023/03/02 04:55:17;;;;;;;28.50;19.20;;;;;;;-1.88;100.00;102183.34;5066834;28;20038;-64
2023/03/02 04:57:43;;;;;;;26.83;17.53;;;;;;;-1.88;100.00;102184.25;5067325;28;20033;-64
2023/03/02 05:00:08;;;;;;;27.40;17.60;;;;;;;-1.88;100.00;102184.25;5066559;28;20040;-64
2023/03/02 05:02:34;;;;;;;30.20;19.67;;;;;;;-1.88;100.00;102188.41;5066989;28;20028;-64
2023/03/02 05:04:59;;;;;;;27.50;17.70;;;;;;;-1.88;100.00;102185.88;5067263;28;20029;-64
2023/03/02 05:07:24;;;;;;;30.97;19.87;;;;;;;-1.89;100.00;102184.09;5067320;28;20530;-64
2023/03/02 05:09:50;;;;;;;27.80;19.13;;;;;;;-1.91;100.00;102194.09;5067606;28;20024;-64
2023/03/02 05:12:17;;;;;;;29.23;19.10;;;;;;;-1.91;100.00;102193.19;5067225;28;20027;-64
2023/03/02 05:14:43;;;;;;;29.17;19.10;;;;;;;-1.90;100.00;102194.97;5067250;28;20025;-64
2023/03/02 05:17:08;;;;;;;28.57;19.23;;;;;;;-1.90;100.00;102194.97;5067452;28;20031;-64
2023/03/02 05:19:33;;;;;;;28.73;19.43;;;;;;;-1.91;100.00;102195.72;5067117;28;20016;-65
2023/03/02 05:21:59;;;;;;;29.47;18.90;;;;;;;-1.94;100.00;102192.13;5066484;28;20028;-65
2023/03/02 05:24:24;;;;;;;29.40;19.03;;;;;;;-1.95;100.00;102197.97;5066983;28;20028;-64
2023/03/02 05:26:49;;;;;;;32.87;20.57;;;;;;;-1.96;100.00;102191.06;5067182;28;20036;-65
2023/03/02 05:29:15;;;;;;;30.47;20.07;;;;;;;-1.94;100.00;102193.75;5067146;28;20032;-64
2023/03/02 05:31:42;;;;;;;33.60;20.73;;;;;;;-1.95;100.00;102191.97;5066522;28;20024;-64
2023/03/02 05:34:11;;;;;;;33.53;20.20;;;;;;;-2.00;100.00;102194.03;5068161;28;20039;-64
2023/03/02 05:36:37;;;;;;;30.77;19.90;;;;;;;-2.01;100.00;102188.75;5071643;28;20167;-64
2023/03/02 05:39:03;;;;;;;29.47;19.50;;;;;;;-2.03;100.00;102191.16;5070426;28;20043;-64
2023/03/02 05:41:29;;;;;;;33.90;20.80;;;;;;;-2.04;100.00;102189.38;5070836;28;20032;-64
2023/03/02 05:43:54;;;;;;;32.23;20.53;;;;;;;-2.05;100.00;102185.91;5070787;28;20449;-64
2023/03/02 05:46:19;;;;;;;31.63;20.10;;;;;;;-2.05;100.00;102195.16;5070338;28;20027;-64
2023/03/02 05:48:45;;;;;;;30.93;19.87;;;;;;;-2.06;100.00;102188.28;5070681;28;20025;-64
2023/03/02 05:51:10;;;;;;;32.70;20.97;;;;;;;-2.04;100.00;102191.91;5070492;28;20037;-64
2023/03/02 05:53:36;;;;;;;33.37;20.60;;;;;;;-2.04;100.00;102191.91;5070379;28;20043;-64
2023/03/02 05:56:02;;;;;;;32.03;20.37;;;;;;;-2.06;100.00;102188.28;5070961;28;20097;-64
2023/03/02 05:58:27;;;;;;;32.17;20.80;;;;;;;-2.09;100.00;102182.91;5070504;28;20533;-64
2023/03/02 06:00:52;;;;;;;31.40;19.67;;;;;;;-2.14;100.00;102184.94;5070291;28;20096;-64
2023/03/02 06:03:18;;;;;;;32.47;20.90;;;;;;;-2.17;100.00;102195.69;5070543;28;20551;-64
2023/03/02 06:05:44;;;;;;;34.73;21.53;;;;;;;-2.20;100.00;102189.38;5070150;28;20086;-64
2023/03/02 06:08:09;;;;;;;33.33;21.20;;;;;;;-2.25;100.00;102188.91;5069664;28;20099;-64
2023/03/02 06:10:35;;;;;;;34.73;21.17;;;;;;;-2.28;100.00;102188.56;5068184;28;20032;-64
2023/03/02 06:13:00;;;;;;;34.90;21.00;;;;;;;-2.31;100.00;102183.16;5068461;28;20036;-64
2023/03/02 06:15:28;;;;;;;33.90;22.60;;;;;;;-2.32;100.00;102187.34;5068369;28;20373;-64
2023/03/02 06:17:54;;;;;;;36.00;22.40;;;;;;;-2.31;100.00;102189.16;5067963;28;20031;-64
2023/03/02 06:20:19;;;;;;;38.57;23.30;;;;;;;-2.33;100.00;102193.16;5069264;28;20112;-64
2023/03/02 06:22:46;;;;;;;35.20;21.77;;;;;;;-2.35;100.00;102188.66;5069148;28;20096;-64
2023/03/02 06:25:14;;;;;;;34.63;21.20;;;;;;;-2.35;100.00;102192.09;5069840;28;20035;-64
2023/03/02 06:27:40;;;;;;;39.63;22.93;;;;;;;-2.32;100.00;102196.63;5070089;28;20485;-64
2023/03/02 06:30:07;;;;;;;38.57;24.37;;;;;;;-2.32;100.00;102200.03;5069461;28;20032;-64
2023/03/02 06:32:34;;;;;;;38.90;23.70;;;;;;;-2.32;100.00;102194.97;5069419;28;20033;-64
2023/03/02 06:35:00;;;;;;;40.10;23.77;;;;;;;-2.31;100.00;102200.94;5070074;28;20107;-64
2023/03/02 06:37:27;;;;;;;41.83;23.47;;;;;;;-2.31;100.00;102204.41;5069777;28;20028;-64
2023/03/02 06:39:53;;;;;;;44.30;23.83;;;;;;;-2.31;100.00;102206.94;5069996;28;20036;-64
2023/03/02 06:42:19;;;;;;;41.50;24.13;;;;;;;-2.30;100.00;102205.28;5070015;28;20024;-64
2023/03/02 06:44:44;;;;;;;43.60;24.77;;;;;;;-2.29;100.00;102207.09;5069467;28;20081;-64
2023/03/02 06:47:09;;;;;;;42.27;24.80;;;;;;;-2.27;100.00;102209.78;5068778;28;20033;-64
2023/03/02 06:49:35;;;;;;;43.70;25.17;;;;;;;-2.27;100.00;102213.25;5069415;28;20052;-64
2023/03/02 06:52:00;;;;;;;41.57;23.20;;;;;;;-2.24;100.00;102205.94;5069252;28;20503;-64
2023/03/02 06:54:25;;;;;;;39.93;24.97;;;;;;;-2.22;100.00;102206.09;5069784;28;20043;-64
2023/03/02 06:56:51;;;;;;;40.60;23.87;;;;;;;-2.22;100.00;102207.00;5069307;28;20052;-64
2023/03/02 06:59:16;;;;;;;42.03;24.90;;;;;;;-2.21;100.00;102207.88;5068833;28;20545;-64
2023/03/02 07:01:41;;;;;;;40.57;24.43;;;;;;;-2.19;100.00;102221.66;5069577;28;20395;-64
2023/03/02 07:04:07;;;;;;;42.40;25.13;;;;;;;-2.14;100.00;102219.63;5069614;28;20127;-64
2023/03/02 07:06:32;;;;;;;41.90;25.27;;;;;;;-2.11;100.00;102219.94;5069578;28;20051;-64
2023/03/02 07:08:57;;;;;;;41.93;23.37;;;;;;;-2.05;100.00;102220.56;5069069;28;20362;-64
2023/03/02 07:11:23;;;;;;;42.20;23.83;;;;;;;-1.99;100.00;102218.69;5068586;28;20036;-64
2023/03/02 07:13:48;;;;;;;41.13;24.40;;;;;;;-1.92;100.00;102221.91;5069016;28;20029;-64
2023/03/02 07:16:14;;;;;;;42.37;23.73;;;;;;;-1.85;100.00;102219.22;5069377;28;20031;-64
2023/03/02 07:18:40;;;;;;;42.57;25.13;;;;;;;-1.79;100.00;102221.50;5069031;28;20082;-65
2023/03/02 07:21:05;;;;;;;41.03;23.77;;;;;;;-1.71;100.00;102229.19;5068539;28;20032;-64
2023/03/02 07:23:31;;;;;;;39.13;23.13;;;;;;;-1.57;100.00;102228.13;5068911;28;20475;-64
2023/03/02 07:25:56;;;;;;;41.27;24.50;;;;;;;-1.40;100.00;102222.97;5068711;28;20032;-64
2023/03/02 07:28:23;;;;;;;40.07;22.80;;;;;;;-1.08;100.00;102230.47;5068689;28;20024;-64
2023/03/02 07:30:49;;;;;;;37.63;24.10;;;;;;;-0.75;100.00;102221.88;5068672;28;20016;-64
2023/03/02 07:33:14;;;;;;;35.37;21.50;;;;;;;-0.46;100.00;102220.44;5068515;28;20028;-64
2023/03/02 07:35:39;;;;;;;36.93;22.57;;;;;;;-0.21;100.00;102221.94;5068644;28;20024;-64
2023/03/02 07:38:05;;;;;;;36.33;21.83;;;;;;;0.17;100.00;102222.25;5068639;28;20085;-64
2023/03/02 07:40:30;;;;;;;34.73;21.70;;;;;;;0.39;100.00;102224.31;5068688;28;20381;-64
2023/03/02 07:42:55;;;;;;;37.50;23.00;;;;;;;0.58;100.00;102226.94;5068166;28;20154;-64
2023/03/02 07:45:23;;;;;;;34.70;22.00;;;;;;;0.67;100.00;102231.13;5068131;28;20027;-64
2023/03/02 07:47:49;;;;;;;34.20;22.03;;;;;;;0.71;100.00;102229.03;5068508;28;20047;-64
2023/03/02 07:50:14;;;;;;;37.10;23.20;;;;;;;0.72;100.00;102224.78;5067654;28;20048;-64
2023/03/02 07:52:39;;;;;;;31.17;20.43;;;;;;;0.78;100.00;102232.13;5068203;28;20637;-64
2023/03/02 07:55:05;;;;;;;32.83;21.77;;;;;;;0.97;100.00;102228.78;5067789;28;20020;-64
2023/03/02 07:57:30;;;;;;;36.10;21.57;;;;;;;1.18;100.00;102238.44;5067035;28;20028;-64
2023/03/02 07:59:55;;;;;;;35.30;21.93;;;;;;;1.36;100.00;102233.22;5067987;28;20039;-64
2023/03/02 08:02:21;;;;;;;34.00;21.30;;;;;;;1.51;100.00;102230.28;5068129;28;20037;-64
2023/03/02 08:04:46;;;;;;;33.13;20.67;;;;;;;1.68;100.00;102227.59;5068262;28;20469;-65
2023/03/02 08:07:12;;;;;;;28.07;19.03;;;;;;;1.92;100.00;102222.88;5067779;28;20396;-64
2023/03/02 08:09:39;;;;;;;31.50;19.90;;;;;;;2.25;100.00;102232.53;5067093;28;20443;-64
2023/03/02 08:12:04;;;;;;;29.83;19.57;;;;;;;2.49;97.47;102222.66;5067733;28;20024;-64
2023/03/02 08:14:30;;;;;;;28.93;19.37;;;;;;;2.62;95.79;102225.53;5067871;28;20381;-64
2023/03/02 08:16:55;;;;;;;31.63;20.80;;;;;;;2.66;93.25;102225.81;5067724;28;20073;-64
2023/03/02 08:19:20;;;;;;;27.90;19.30;;;;;;;2.71;93.28;102224.53;5067487;28;20024;-64
2023/03/02 08:21:46;;;;;;;31.27;20.50;;;;;;;2.87;92.33;102227.66;5067463;28;20277;-65
2023/03/02 08:24:11;;;;;;;30.47;19.37;;;;;;;3.04;92.27;102219.63;5067881;28;20032;-64
2023/03/02 08:26:37;;;;;;;29.83;18.60;;;;;;;3.21;89.06;102218.47;5068337;28;20028;-64
2023/03/02 08:29:03;;;;;;;29.50;18.53;;;;;;;3.66;88.93;102226.41;5067876;28;20073;-64
2023/03/02 08:31:28;;;;;;;27.47;18.10;;;;;;;4.20;85.65;102220.53;5067511;28;20025;-65
2023/03/02 08:33:54;;;;;;;27.23;18.53;;;;;;;4.63;82.88;102228.94;5065897;28;20130;-65
2023/03/02 08:36:19;;;;;;;27.27;17.77;;;;;;;5.00;79.83;102224.09;5067395;28;20070;-65
2023/03/02 08:38:46;;;;;;;24.43;17.20;;;;;;;5.39;77.56;102218.44;5067302;28;20572;-65
2023/03/02 08:41:14;;;;;;;26.80;18.08;;;;;;;5.64;74.56;102226.31;5067906;28;20149;-65
2023/03/02 08:43:39;;;;;;;23.45;16.05;;;;;;;5.76;73.13;102221.19;5066751;28;20040;-65
2023/03/02 08:46:04;;;;;;;23.17;17.80;;;;;;;5.78;71.62;102223.88;5068096;28;20108;-65
2023/03/02 08:48:30;;;;;;;24.92;17.33;;;;;;;5.80;70.39;102218.81;5067390;28;20024;-65
2023/03/02 08:51:13;;;;;;;24.38;17.23;;;;;;;5.63;70.59;102219.38;5067426;28;20467;-65
2023/03/02 08:53:41;;;;;;;24.38;17.05;;;;;;;5.80;70.55;102222.31;5066635;28;20566;-66
2023/03/02 08:56:27;;;;;;;23.50;17.10;;;;;;;5.64;70.44;102220.28;5067747;28;20024;-65
2023/03/02 08:58:54;;;;;;;24.58;17.08;;;;;;;5.51;70.96;102221.03;5067427;28;20074;-65
2023/03/02 09:01:27;;;;;;;22.42;15.07;;;;;;;5.29;70.87;102217.75;5067336;28;20028;-65
2023/03/02 09:03:53;;;;;;;23.67;16.03;;;;;;;5.33;71.03;102213.72;5067322;28;20628;-65
2023/03/02 09:06:18;;;;;;;21.83;15.40;;;;;;;5.33;71.63;102217.97;5067351;28;20122;-65
2023/03/02 09:08:43;;;;;;;21.17;15.48;;;;;;;5.58;71.46;102209.50;5067554;28;20040;-65
2023/03/02 09:11:09;;;;;;;21.05;15.43;;;;;;;5.77;70.42;102204.94;5071645;28;20388;-65
2023/03/02 09:13:35;;;;;;;20.55;14.80;;;;;;;6.06;67.51;102205.31;5071701;28;20498;-65
2023/03/02 09:16:01;;;;;;;19.40;14.90;;;;;;;6.28;65.67;102199.16;5071443;28;20024;-65
2023/03/02 09:18:28;;;;;;;22.13;16.00;;;;;;;6.40;65.53;102199.16;5071151;28;20408;-65
2023/03/02 09:20:55;;;;;;;21.67;15.00;;;;;;;6.58;64.77;102208.97;5070584;28;20020;-65
2023/03/02 09:23:21;;;;;;;19.98;14.52;;;;;;;6.74;64.10;102208.34;5071679;28;20115;-65
2023/03/02 09:25:47;;;;;;;20.35;15.13;;;;;;;6.78;62.97;102209.47;5071282;28;20016;-65
2023/03/02 09:28:13;;;;;;;18.33;14.25;;;;;;;6.64;63.45;102211.09;5071268;28;20028;-65
2023/03/02 09:30:39;;;;;;;19.10;14.13;;;;;;;6.71;63.23;102208.16;5070969;28;20032;-65
2023/03/02 09:33:04;;;;;;;19.65;14.68;;;;;;;6.79;63.65;102212.16;5070419;28;20495;-65
2023/03/02 09:35:29;;;;;;;23.30;15.27;;;;;;;6.67;62.20;102207.03;5071107;28;20039;-65
2023/03/02 09:37:55;;;;;;;17.88;13.35;;;;;;;6.63;62.86;102206.69;5070973;28;20490;-65
2023/03/02 09:40:25;;;;;;;20.08;14.52;;;;;;;6.47;63.62;102196.22;5070854;28;20551;-65
2023/03/02 09:43:05;;;;;;;23.20;14.98;;;;;;;6.38;63.22;102200.72;5070656;28;20055;-65
2023/03/02 09:45:55;;;;;;;20.33;13.93;;;;;;;6.33;63.61;102197.78;5070379;28;20115;-65
2023/03/02 09:48:45;;;;;;;18.35;14.48;;;;;;;6.39;62.71;102189.63;5070925;28;20040;-65
2023/03/02 09:51:31;;;;;;;19.10;14.02;;;;;;;6.40;63.31;102190.53;5070788;28;20362;-65
2023/03/02 09:54:05;;;;;;;17.63;12.75;;;;;;;6.10;60.15;102181.59;5070613;28;20047;-65
2023/03/02 09:56:35;;;;;;;18.73;12.50;;;;;;;5.83;60.63;102190.78;5070855;28;20032;-65
2023/03/02 09:59:34;;;;;;;17.05;11.95;;;;;;;5.73;62.48;102184.94;5070581;28;20036;-65
2023/03/02 10:02:20;;;;;;;17.65;12.75;;;;;;;5.63;62.12;102187.63;5065623;28;20051;-65
2023/03/02 10:04:52;;;;;;;17.98;12.40;;;;;;;5.67;62.95;102189.63;5070281;28;20024;-65
2023/03/02 10:07:31;;;;;;;17.45;11.70;;;;;;;5.65;63.11;102192.09;5070427;28;20040;-65
2023/03/02 10:10:16;;;;;;;19.38;12.32;;;;;;;5.60;62.57;102193.44;5070451;28;20107;-65
2023/03/02 10:13:19;;;;;;;16.15;11.32;;;;;;;5.58;62.05;102183.81;5069441;28;20052;-65
2023/03/02 10:15:58;;;;;;;13.95;10.85;;;;;;;5.56;61.86;102185.38;5070513;28;20120;-65
2023/03/02 10:18:33;;;;;;;14.50;10.73;;;;;;;5.56;60.75;102191.41;5069829;28;20444;-65
2023/03/02 10:21:31;;;;;;;15.00;10.70;;;;;;;5.45;59.63;102188.03;5068889;28;20033;-65
2023/03/02 10:23:57;;;;;;;14.07;10.60;;;;;;;5.31;58.49;102196.41;5062080;28;20489;-65
2023/03/02 10:26:28;;;;;;;14.00;10.77;;;;;;;5.25;59.09;102195.13;5069961;28;20078;-65
2023/03/02 10:29:13;;;;;;;;;;;;;;;5.27;60.43;102192.72;5070407;28;20067;-65
2023/03/02 10:31:40;;;;;;;14.00;10.17;;;;;;;5.27;59.63;102188.44;5065362;28;19908;-65
2023/03/02 10:34:09;;;;;;;13.38;9.80;;;;;;;5.27;60.32;102197.84;5069522;28;20028;-65
2023/03/02 10:36:38;;;;;;;13.20;9.15;;;;;;;5.28;59.57;102190.25;5069517;28;20373;-65
2023/03/02 10:39:12;;;;;;;13.40;10.38;;;;;;;5.28;59.75;102190.25;5069977;28;20142;-65
2023/03/02 10:41:43;;;;;;;12.18;9.65;;;;;;;5.29;60.39;102185.97;5069939;28;20082;-65
2023/03/02 10:44:36;;;;;;;13.25;10.55;;;;;;;5.36;61.01;102183.09;5069812;28;20044;-65
2023/03/02 10:47:02;;;;;;;14.95;9.45;;;;;;;5.39;60.18;102185.03;5069928;28;20146;-65
2023/03/02 10:49:31;;;;;;;14.65;10.65;;;;;;;5.47;62.01;102175.31;5068907;28;20070;-65
2023/03/02 10:51:58;;;;;;;14.40;11.20;;;;;;;5.52;62.46;102173.97;5069613;28;20481;-65
2023/03/02 10:54:25;;;;;;;14.70;10.90;;;;;;;5.56;61.50;102169.97;5069456;28;20020;-65
2023/03/02 10:56:52;;;;;;;14.48;10.77;;;;;;;5.60;61.83;102169.38;5069600;28;20020;-65
2023/03/02 10:59:23;;;;;;;14.25;10.40;;;;;;;5.65;61.51;102171.50;5068957;28;20481;-66
2023/03/02 11:02:13;;;;;;;14.00;9.95;;;;;;;5.74;62.15;102175.53;5069700;28;20031;-65
2023/03/02 11:04:38;;;;;;;17.38;9.60;;;;;;;5.83;61.41;102183.06;5069378;28;20033;-65
2023/03/02 11:07:16;;;;;;;14.02;10.43;;;;;;;5.80;59.84;102167.38;5069421;28;20036;-65
2023/03/02 11:09:42;;;;;;;13.15;10.27;;;;;;;5.75;59.05;102157.66;5067513;28;20055;-65
2023/03/02 11:12:15;;;;;;;12.85;9.55;;;;;;;5.79;59.52;102158.78;5068431;28;20062;-65
2023/03/02 11:14:41;;;;;;;13.88;10.32;;;;;;;5.80;59.67;102172.53;5069223;28;20048;-65
2023/03/02 11:17:37;;;;;;;12.20;10.00;;;;;;;5.85;60.04;102163.47;5069009;28;20178;-65